NWS Home NWS Lubbock West Texas Mesonet                      Daily Summary For 04/15/2021

Latest   N   C   S   Daily Sum   3hrΔ   24hrΔ   Soil Data 
Site Map   24hr Precip   72hr Precip   Google Plot


Station Time of Last Max Temp Min Temp Max/Min Dew Pt. Max/Min RH 10m Avg Wind 2m Avg Wind Peak Gust @ 33ft (mph) Potential Evapotranspiration
mm/day or in/day
Rain Sum Solar Rad
MJ/m^2
% Clear Day Red Flag
Abernathy 5ENE 11:59 PM 72 58 60 /55 96 / 60 11.8  (E) 9.5 23 mph 113° @ 0937 PM 0.5 or 0.02 0.03 4.5 33.2 0
Adrian 6WSW 11:59 PM 72 58 60 /55 96 / 60 14.7  (SE) 12.2 28.1 mph 138° @ 1027 PM 0.5 or 0.02 0.02 4.6 35.3 0
Aiken 3WSW 11:59 PM 72 58 60 /55 96 / 60 12.9  (E) 9.5 24 mph 108° @ 0218 PM 0.5 or 0.02 0.12 4.7 34.8 0
Amarillo 15NNW 11:59 PM 72 58 60 /55 96 / 60 12.8  (E) 10.1 22.5 mph 110° @ 1132 AM 0.8 or 0.03 0.02 2.7 20.9 0
Amarillo 7SSE 11:59 PM 72 58 60 /55 96 / 60 14.7  (E) 11.5 25.2 mph 102° @ 1106 AM 0.5 or 0.02 0.02 3.3 25 0
Amarillo 9NNE 11:59 PM 72 58 60 /55 96 / 60 13.2  (SE) 11.5 26.2 mph 115° @ 1128 AM 0.8 or 0.03 0.00 2.9 22.5 0
Amherst 1NE 11:59 PM 72 58 60 /55 96 / 60 11.2  (E) 9.2 23 mph 125° @ 1044 PM 2 or 0.08 0.08 76.1 562.1 0
Andrews 2E 11:59 PM 72 58 60 /55 96 / 60 8.7  (E) 5.7 20.8 mph 48° @ 0427 AM 0.8 or 0.03 0.04 4.3 30.1 0
Anton 6SSW 11:55 PM 72 58 60 /55 96 / 60 11.7  (E) 9.7 21.5 mph 99° @ 0125 PM 0.5 or 0.02 0.02 3.8 27.5 0
Aspermont 3NE 11:59 PM 72 58 60 /55 96 / 60 8.3  (NE) 5.5 19.7 mph 68° @ 1041 AM 0.5 or 0.02 1.41 3.1 22.4 0
Big Bend NP - Castolon 11:59 PM 72 58 60 /55 96 / 60 7.6  (W) 6.1 22.2 mph 210° @ 0358 PM 4.6 or 0.18 0.00 21.5 137.7 0
Big Bend NP - Persimmon Gap 11:59 PM 72 58 60 /55 96 / 60 15.9  (N) 13 27.6 mph 33° @ 1021 PM 4.6 or 0.18 0.00 20.3 130.8 0
Big Lake 1WNW 11:59 PM 72 58 60 /55 96 / 60 7.5  (NE) 6 17.1 mph 48° @ 0417 AM 0.8 or 0.03 0.02 4.8 32.2 0
Bootleg 11WNW 11:59 PM 72 58 60 /55 96 / 60 14.1  (E) 11.2 30 mph 138° @ 1009 PM 0.5 or 0.02 0.04 3.5 26.2 0
Borger 7E 11:59 PM 72 58 60 /55 96 / 60 13.9  (E) 10.8 27.4 mph 134° @ 1253 PM 1 or 0.04 0.00 3.1 24.7 0
Boys Ranch 1WSW 11:59 PM 72 58 60 /55 96 / 60 10.2  (E) 8.6 18.9 mph 100° @ 1252 AM 0.5 or 0.02 0.03 3 23.3 0
Brownfield 2S 11:59 PM 72 58 60 /55 96 / 60 11.4  (E) 9.4 21.9 mph 70° @ 0751 AM 0.5 or 0.02 0.03 4.5 32.5 0
Canadian 6E 11:59 PM 72 58 60 /55 96 / 60 11.4  (E) 8.9 24.1 mph 103° @ 0734 PM 1.3 or 0.05 0.00 4.7 37.6 0
Caprock Canyons State Park 11:59 PM 72 58 60 /55 96 / 60 8.5  (E) 5.9 17.8 mph 128° @ 0248 PM 0.5 or 0.02 0.60 3.3 25.2 0
Childress 2NNE 11:55 PM 72 58 60 /55 96 / 60 10.2  (NE) 7.2 26.6 mph 76° @ 1135 AM 0.8 or 0.03 0.54 3.5 26.7 0
Clarendon 2WSW 11:55 PM 72 58 60 /55 96 / 60 11.9  (E) 9.3 26.2 mph 93° @ 1220 PM 0.8 or 0.03 0.15 3.2 24.5 0
Claude 12SW 11:59 PM 72 58 60 /55 96 / 60 13.6  (E) 10.5 24.7 mph 106° @ 1238 PM 0.5 or 0.02 0.10 2.9 22.4 0
Clyde 2WNW 11:59 PM 72 58 60 /55 96 / 60 10.7  (NE) 8.3 25.3 mph 117° @ 0850 PM 0.5 or 0.02 0.68 3.5 25 0
Colorado City 5NW 11:59 PM 72 58 60 /55 96 / 60 9.1  (NE) 6.5 19.2 mph 47° @ 0612 AM 0.5 or 0.02 0.09 3.7 26.5 0
Comanche Springs 11:59 PM 72 58 60 /55 96 / 60 8.9  (NE) 6.2 23 mph 54° @ 1220 PM 0.8 or 0.03 0.54 3.9 29.1 0
Coyanosa 2N 11:59 PM 72 58 60 /55 96 / 60 7.8  (NE) 5.3 17.2 mph 77° @ 0858 PM 1.5 or 0.06 0.00 7.7 52.1 0
Crane 1NNW 11:59 PM 72 58 60 /55 96 / 60 9.7  (E) 8.3 21.4 mph 69° @ 1235 AM 1 or 0.04 0.00 6.1 41.8 0
Crowell 1E 11:59 PM 72 58 60 /55 96 / 60 11  (NE) 8.6 21 mph 71° @ 1249 PM 0.5 or 0.02 0.51 3.3 24.6 0
Dell City 11:59 PM 72 58 60 /55 96 / 60 6.9  (S) 4.6 25.1 mph 255° @ 1043 PM 2.8 or 0.11 0.00 14.6 100.6 0
Denver City 7WNW 11:55 PM 72 58 60 /55 96 / 60 10.3  (E) 7.8 19.5 mph 108° @ 0150 PM 0.5 or 0.02 0.05 4.3 30.7 0
Dimmitt 2NE 11:55 PM 72 58 60 /55 96 / 60 13.5  (E) 11.4 23.4 mph 126° @ 1010 PM 0.5 or 0.02 0.06 4.1 31.2 0
Doole 3WNW 11:59 PM 72 58 60 /55 96 / 60 11  (NE) 9.2 22.9 mph 69° @ 1140 AM 1 or 0.04 0.03 3.5 24.2 0
Dora NM 2SW 11:55 PM 72 58 60 /55 96 / 60 11.8  (E) 9.3 28.3 mph 150° @ 1155 PM 0.5 or 0.02 0.02 4.1 29.7 0
Dozier 3W 11:59 PM 72 58 60 /55 96 / 60 10  (E) 6.8 21.9 mph 59° @ 1057 AM 0.8 or 0.03 0.09 3.2 25 0
Earth 9WSW 11:59 PM 72 58 60 /55 96 / 60 9.9  (E) 8.1 23.2 mph 125° @ 1035 PM 0.5 or 0.02 0.09 3.4 24.9 0
Endee NM 2SW 11:59 PM 72 58 60 /55 96 / 60 10.7  (SE) 8.6 23.5 mph 143° @ 0608 PM 0.8 or 0.03 0.03 4.2 32 0
Estelline 3SSE 11:59 PM 72 58 60 /55 96 / 60 9.2  (NE) 6.9 27.2 mph 64° @ 1103 AM 0.5 or 0.02 0.45 3.8 29.3 0
Floydada 2NNE 11:55 PM 72 58 60 /55 96 / 60 13.4  (NE) 10.5 25.1 mph 58° @ 0845 AM 0.5 or 0.02 0.11 3.6 26.7 0
Fluvanna 3WNW 11:55 PM 72 58 60 /55 96 / 60 10  (NE) 7.9 21.1 mph 28° @ 0730 AM 0.5 or 0.02 0.39 3.6 25.4 0
Fort Chadbourne 11:59 PM 72 58 60 /55 96 / 60 7.5  (NE) 4.9 20.1 mph 109° @ 0811 PM 0.5 or 0.02 0.12 2.8 19.7 0
Fort Lancaster 11:59 PM 72 58 60 /55 96 / 60 4.6  (NE) 2.7 15.3 mph 22° @ 1203 AM 1 or 0.04 0.04 4.3 28.8 0
Fort Lewis CO 11:59 PM 72 58 60 /55 96 / 60 12.1  (W) 7.2 42.6 mph 246° @ 0528 PM 2 or 0.08 0.00 24.5 197.5 0
Fort McKavett 11:59 PM 72 58 60 /55 96 / 60 6.9  (N) 3.5 19.2 mph 103° @ 1002 PM 1 or 0.04 0.18 5.3 35.3 0
Friona 2NE 11:55 PM 72 58 60 /55 96 / 60 12.5  (E) 10.3 26.5 mph 137° @ 1035 PM 0.5 or 0.02 0.02 4.3 32.5 0
Fritch 1WNW 11:59 PM 72 58 60 /55 96 / 60 9.5  (SE) 8 21.5 mph 103° @ 1003 AM 0.8 or 0.03 0.02 2.6 20.2 0
Gail 2ESE 11:59 PM 72 58 60 /55 96 / 60 8.1  (NE) 5.4 19.7 mph 32° @ 0731 AM 0.5 or 0.02 0.17 3.7 26.7 0
Goodlett 3W 11:55 PM 72 58 60 /55 96 / 60 11.5  (NE) 9 23.8 mph 49° @ 0100 PM 0.8 or 0.03 0.31 4.3 33 0
Goodnight 11:59 PM 72 58 60 /55 96 / 60 12  (E) 9.4 27.2 mph 102° @ 1144 AM 0.5 or 0.02 0.10 2.3 17.9 0
Graham 5SSW 11:59 PM 72 58 60 /55 96 / 60 11.1  (NE) 8 25.2 mph 59° @ 0736 AM 0.5 or 0.02 0.08 3.9 27.9 0
Guadalupe Mtns Natl Park 11:59 PM 72 58 60 /55 96 / 60 5.6  (NE) 3.8 31.8 mph 296° @ 1134 PM 2 or 0.08 0.00 13.6 92 0
Guthrie 10WSW 11:59 PM 72 58 60 /55 96 / 60 9.8  (NE) 6.4 21.9 mph 4° @ 1109 AM 0.5 or 0.02 0.38 2.6 18.9 0
Hackberry 2SSE 11:59 PM 72 58 60 /55 96 / 60 10.4  (NE) 8.3 24.6 mph 43° @ 1203 PM 0.5 or 0.02 0.32 3.2 23.7 0
Happy 1E 11:59 PM 72 58 60 /55 96 / 60 14.4  (E) 11.9 30.9 mph 84° @ 1052 AM 0.5 or 0.02 0.12 4 30.4 0
Hart 3N 11:55 PM 72 58 60 /55 96 / 60 13.4  (E) 10.5 23.8 mph 86° @ 1135 AM 0.5 or 0.02 0.06 3.8 28.8 0
Haskell 1NW 11:55 PM 72 58 60 /55 96 / 60 10  (NE) 8 23.3 mph 55° @ 1220 PM 0.5 or 0.02 1.71 2.5 18 0
Hefner 1SW 11:59 PM 72 58 60 /55 96 / 60 11.9  (NE) 8.3 34.9 mph 59° @ 0912 AM 0.5 or 0.02 0.73 3 22 0
Hereford 2NW 11:55 PM 72 58 60 /55 96 / 60 9.8  (E) 8.2 22.4 mph 128° @ 1010 PM 0.5 or 0.02 0.06 3.6 27.3 0
Hobbs NM 5NW 11:59 PM 72 58 60 /55 96 / 60 8  (E) 4.7 18.6 mph 116° @ 0859 PM 0.5 or 0.02 0.01 4.2 29.8 0
Jayton 1SSE 11:55 PM 72 58 60 /55 96 / 60 9.7  (NE) 7.1 19.9 mph 62° @ 0950 AM 0.5 or 0.02 0.38 3 21.9 0
Junction 1SSW 11:59 PM 72 58 60 /55 96 / 60 6.5  (NE) 5.3 17.2 mph 61° @ 0911 AM 1.3 or 0.05 0.16 3.1 20.6 0
Kent 9E 11:59 PM 72 58 60 /55 96 / 60 7.7  (E) 5.6 22.7 mph 110° @ 0640 PM 2 or 0.08 0.00 13.7 91.2 0
Knox City 3NW 11:59 PM 72 58 60 /55 96 / 60 9.6  (NE) 7.2 25.2 mph 42° @ 0844 AM 0.5 or 0.02 0.88 3.2 23.4 0
Lake Alan Henry 1NW 11:59 PM 72 58 60 /55 96 / 60 9.2  (NE) 6.4 19.4 mph 54° @ 0722 AM 0.5 or 0.02 0.23 3.1 22.4 0
Lake McClellan 2NW 11:59 PM 72 58 60 /55 96 / 60 13.6  (E) 11.2 23.8 mph 84° @ 1136 AM 0.8 or 0.03 0.00 3 23.5 0
Lamesa 1S 11:55 PM 72 58 60 /55 96 / 60 8.6  (NE) 5.9 18.3 mph 62° @ 1255 AM 0.8 or 0.03 0.05 0.9 30.7 0
Lesley 2S 11:59 PM 72 58 60 /55 96 / 60 12.5  (E) 9 25.4 mph 91° @ 1238 PM 0.5 or 0.02 0.31 3.7 27.9 0
Levelland 4S 11:59 PM 72 58 60 /55 96 / 60 11.6  (E) 10 24.1 mph 121° @ 0212 PM 0.8 or 0.03 0.04 4.5 32.6 0
Lomax 1SSE 11:59 PM 72 58 60 /55 96 / 60 8.7  (NE) 7 19.3 mph 60° @ 1220 AM 0.8 or 0.03 0.01 3.9 27.5 0
Lubbock 3WNW TTU 11:55 PM 72 58 60 /55 96 / 60 9  (E) 6.4 18.6 mph 99° @ 1015 PM 0.5 or 0.02 0.05 3.9 28.7 0
McAdoo 3NNW 11:59 PM 72 58 60 /55 96 / 60 12.6  (NE) 8.8 26.3 mph 54° @ 0757 AM 0.5 or 0.02 0.26 3.8 27.8 0
McCamey 1SSW 11:59 PM 72 58 60 /55 96 / 60 8.2  (E) 7.1 23.7 mph 59° @ 1232 AM 1 or 0.04 0.00 5.5 37.1 0
McLean 1E 11:55 PM 72 58 60 /55 96 / 60 11.8  (E) 8.8 24 mph 77° @ 1100 AM 0.8 or 0.03 0.02 4.1 31.7 0
Memphis 1NE 11:59 PM 72 58 60 /55 96 / 60 8.9  (NE) 6.3 24.1 mph 63° @ 0102 PM 0.5 or 0.02 0.31 3.5 26.9 0
Menard 2NW 11:59 PM 72 58 60 /55 96 / 60 8.7  (N) 7.2 18.9 mph 97° @ 0750 PM 0.8 or 0.03 0.18 4.2 28.3 0
Mertzon 3NNE 11:59 PM 72 58 60 /55 96 / 60 7.6  (NE) 5.7 18.9 mph 71° @ 0837 PM 0.8 or 0.03 0.11 3.7 24.9 0
Morton 1ENE 11:55 PM 72 58 60 /55 96 / 60 10.9  (E) 8.2 22.6 mph 112° @ 0130 PM 0.5 or 0.02 0.04 3.9 28.2 0
Muleshoe 2SSW 11:55 PM 72 58 60 /55 96 / 60 10.7  (E) 8.6 21.7 mph 127° @ 1005 PM 0.5 or 0.02 0.04 3.8 27.9 0
New Home 11:59 PM 72 58 60 /55 96 / 60 9.9  (E) 7 20.3 mph 70° @ 1242 AM 0.5 or 0.02 0.05 4.3 31.2 0
Northfield 1S 11:55 PM 72 58 60 /55 96 / 60 8.8  (NE) 6.2 21.2 mph 85° @ 0945 AM 0.5 or 0.02 0.46 3.3 24.6 0
O'Donnell 1N 11:55 PM 72 58 60 /55 96 / 60 12.2  (NE) 9.1 22.4 mph 57° @ 0815 AM 0.5 or 0.02 0.05 0.7 24.9 0
Odell 4ENE 11:59 PM 72 58 60 /55 96 / 60 9.7  (NE) 7.1 27.8 mph 62° @ 0111 PM 0.8 or 0.03 0.52 3.8 28.7 0
Olton 6S 11:55 PM 72 58 60 /55 96 / 60 11.7  (E) 9.8 23.4 mph 97° @ 1200 PM 0.5 or 0.02 0.06 4.8 35.7 0
Paducah 10SW 11:59 PM 72 58 60 /55 96 / 60 10.3  (NE) 7.2 23 mph 48° @ 1154 AM 0.5 or 0.02 0.34 2.6 19.1 0
Palo Duro 4E (JA Ranch) 11:59 PM 72 58 60 /55 96 / 60 9.7  (E) 7.3 19.8 mph 112° @ 1114 PM 0.5 or 0.02 0.25 2.9 22.4 0
Palo Duro Canyon SP Floor 11:59 PM 72 58 60 /55 96 / 60 9.7  (SE) 5.5 23.8 mph 143° @ 1223 PM 0.5 or 0.02 0.06 3 22.9 0
Palo Duro Canyon State Park Rim 11:59 PM 72 58 60 /55 96 / 60 9.1  (E) 5.4 23 mph 115° @ 1208 PM 0.5 or 0.02 0.06 2.6 19.6 0
Palo Duro Reservoir 1NW 11:59 PM 72 58 60 /55 96 / 60 13  (E) 9.8 25.2 mph 128° @ 0636 PM 1.5 or 0.06 0.00 5 40.4 0
Pampa 2E 11:55 PM 72 58 60 /55 96 / 60 14.4  (E) 11.9 24.9 mph 111° @ 1225 PM 0.8 or 0.03 0.00 3.8 30 0
Panhandle 1SSW 11:59 PM 72 58 60 /55 96 / 60 15  (E) 12.4 27.5 mph 107° @ 1255 PM 0.5 or 0.02 0.00 3.2 25.2 0
Plains 3N 11:55 PM 72 58 60 /55 96 / 60 11.1  (E) 9.4 21.6 mph 113° @ 0135 PM 0.5 or 0.02 0.01 4.1 29.4 0
Plainview 1S 11:59 PM 72 58 60 /55 96 / 60 10.3  (E) 8.3 23 mph 114° @ 0152 PM 0.5 or 0.02 0.10 5.4 40.4 0
Post 1NE 11:59 PM 72 58 60 /55 96 / 60 9.8  (NE) 6.3 19.7 mph 53° @ 0943 AM 0.5 or 0.02 0.15 3.6 26.1 0
Ralls 1SE 11:59 PM 72 58 60 /55 96 / 60 12.6  (NE) 9.8 24.1 mph 58° @ 0849 AM 0.5 or 0.02 0.08 3.9 28.9 0
Reese Center 11:59 PM 72 58 60 /55 96 / 60 11.9  (E) 9.5 21.9 mph 112° @ 0954 PM 0.5 or 0.02 0.02 4.1 29.9 0
Roaring Springs 3N 11:59 PM 72 58 60 /55 96 / 60 10.6  (NE) 8.1 24.1 mph 45° @ 1057 AM 0.5 or 0.02 0.23 3.2 23.9 0
Romero 11SSW 11:59 PM 72 58 60 /55 96 / 60 10.5  (E) 8.2 20.1 mph 146° @ 0936 PM 0.5 or 0.02 0.07 3.7 28.5 0
Rotan 5W 11:59 PM 72 58 60 /55 96 / 60 11.4  (NE) 9.1 19.5 mph 50° @ 0908 AM 0.5 or 0.02 0.29 3.9 28 0
San Angelo 7NW 11:55 PM 72 58 60 /55 96 / 60 8.6  (NE) 5.7 22.7 mph 88° @ 0845 PM 0.8 or 0.03 0.22 3.4 23.2 0
Seagraves 1SW 11:59 PM 72 58 60 /55 96 / 60 7  (E) 4 19.7 mph 122° @ 0245 PM 0.5 or 0.02 0.06 4.6 32.5 0
Segovia 7SSW 11:59 PM 72 58 60 /55 96 / 60 7.8  (E) 5.9 18.6 mph 93° @ 1019 AM 1 or 0.04 0.04 2.9 19.3 0
Seminole 2NNE 11:55 PM 72 58 60 /55 96 / 60 10  (E) 7.2 19.6 mph 68° @ 0545 AM 0.8 or 0.03 0.03 0.9 32.5 0
Seymour 3NW 11:55 PM 72 58 60 /55 96 / 60 9.5  (NE) 7.3 27.6 mph 71° @ 0940 AM 0.8 or 0.03 0.43 2.5 18.4 0
Sierra Blanca 1SSE 11:59 PM 72 58 60 /55 96 / 60 9.4  (SE) 7.2 34.4 mph 249° @ 0330 PM 3.8 or 0.15 0.00 15.9 106.2 28
Silverton 7ESE 11:55 PM 72 58 60 /55 96 / 60 13.6  (E) 10.3 25.7 mph 83° @ 1110 AM 0.5 or 0.02 0.41 3.4 25.7 0
Slaton 2NE 11:59 PM 72 58 60 /55 96 / 60 10.4  (E) 8 24.1 mph 99° @ 1107 PM 0.5 or 0.02 0.18 4.1 29.8 0
Smyer 11:59 PM 72 58 60 /55 96 / 60 10.3  (E) 7.2 21.7 mph 67° @ 0753 AM 0.5 or 0.02 0.03 4.4 31.9 0
Snyder 3E 11:55 PM 72 58 60 /55 96 / 60 10  (NE) 4.8 21.5 mph 29° @ 0625 AM 0.5 or 0.02 0.27 3.5 24.7 0
Snyder 3SSW 11:59 PM 72 58 60 /55 96 / 60 10.1  (NE) 7 21 mph 56° @ 0850 AM 0.5 or 0.02 0.31 3.6 25.9 0
South Plains 3ENE 11:59 PM 72 58 60 /55 96 / 60 12.3  (NE) 9.6 24.3 mph 78° @ 1153 AM 0.5 or 0.02 0.35 3.7 27.8 0
Spur 1W 11:55 PM 72 58 60 /55 96 / 60 9.6  (NE) 8 21 mph 59° @ 0930 AM 0.5 or 0.02 0.22 3 22 0
St. Lawrence 5SW 11:59 PM 72 58 60 /55 96 / 60 10.1  (NE) 8.1 19.7 mph 47° @ 1214 AM 0.8 or 0.03 0.04 4.8 32.9 0
Stamford 5ESE 11:59 PM 72 58 60 /55 96 / 60 9.7  (NE) 7.6 24.3 mph 322° @ 1223 PM 0.5 or 0.02 1.55 2 14.5 0
Sterling City 4WSW 11:59 PM 72 58 60 /55 96 / 60 6.2  (N) 4.6 18.9 mph 110° @ 0957 PM 0.5 or 0.02 0.09 2.9 20 0
Stinnett 1NNW 11:59 PM 72 58 60 /55 96 / 60 12.5  (SE) 9.3 22.6 mph 105° @ 1050 AM 0.8 or 0.03 0.02 3 23.4 0
Stratford 4WNW 11:59 PM 72 58 60 /55 96 / 60 14.4  (SE) 10.8 27.7 mph 132° @ 0715 PM 1 or 0.04 0.01 3.9 31.6 0
Sundown 8WSW 11:55 PM 72 58 60 /55 96 / 60 10  (E) 7.2 23.3 mph 114° @ 0145 PM 0.8 or 0.03 0.06 3.6 26 0
Sweetwater 11SW 11:59 PM 72 58 60 /55 96 / 60 11.5  (NE) 8.5 23 mph 53° @ 0640 AM 0.5 or 0.02 0.16 3.7 25.8 0
Tahoka 3NNE 11:59 PM 72 58 60 /55 96 / 60 10.7  (E) 7.4 22.2 mph 66° @ 1212 AM 0.5 or 0.02 0.12 4 28.7 0
Tarzan 2WNW 11:59 PM 72 58 60 /55 96 / 60 11.4  (NE) 8.1 23.2 mph 72° @ 1227 AM 0.5 or 0.02 0.03 4.3 29.9 0
Tatum NM 2SW 11:55 PM 72 58 60 /55 96 / 60 11.4  (E) 7.5 20.1 mph 133° @ 1025 PM 0.5 or 0.02 0.07 4.5 32.1 0
Throckmorton 1SW 11:59 PM 72 58 60 /55 96 / 60 7.8  (NE) 4.3 25.7 mph 66° @ 0928 AM 0.5 or 0.02 2.29 1.8 12.9 0
Truscott 2SE 11:59 PM 72 58 60 /55 96 / 60 10.2  (NE) 7.5 22.1 mph 57° @ 0924 AM 0.8 or 0.03 0.60 2.7 19.9 0
Tulia 2ENE 11:55 PM 72 58 60 /55 96 / 60 14.1  (E) 11.4 24.9 mph 88° @ 1145 AM 0.5 or 0.02 0.06 3.5 26.1 0
Turkey 2WSW 11:55 PM 72 58 60 /55 96 / 60 10.8  (NE) 8.6 23.4 mph 62° @ 1150 AM 0.5 or 0.02 0.34 3.1 23.1 0
Umbarger 3NNE 11:59 PM 72 58 60 /55 96 / 60 12.4  (E) 10.3 24.8 mph 122° @ 0926 PM 0.5 or 0.02 0.05 3.6 27.7 0
Van Horn 3ENE 11:59 PM 72 58 60 /55 96 / 60 6.6  (E) 4.8 26.9 mph 239° @ 0455 PM 3 or 0.12 0.00 16.3 108.8 0
Vega 4E 11:59 PM 72 58 60 /55 96 / 60 12.9  (E) 10.6 27.4 mph 125° @ 0847 PM 0.5 or 0.02 0.05 4.2 32 0
Vigo Park 11:59 PM 72 58 60 /55 96 / 60 14.3  (E) 10.1 28.9 mph 92° @ 1147 AM M or M 0.17 3.5 26.6 13
Wall 2E 11:59 PM 72 58 60 /55 96 / 60 11.2  (NE) 9.1 23.2 mph 93° @ 0923 PM 0.8 or 0.03 0.14 3 20.4 0
Weinert 2NNE 11:59 PM 72 58 60 /55 96 / 60 9  (NE) 7.2 25.2 mph 73° @ 0858 AM 0.5 or 0.02 1.62 2.5 18.5 0
Welch 11:59 PM 72 58 60 /55 96 / 60 9.3  (E) 6.8 18.7 mph 126° @ 0320 PM 0.5 or 0.02 0.03 4.3 30.4 0
Wellington 6SE 11:59 PM 72 58 60 /55 96 / 60 11.7  (NE) 9.5 25.2 mph 64° @ 0110 PM 0.8 or 0.03 0.37 4 30.8 0
White River Lake 6NW 11:59 PM 72 58 60 /55 96 / 60 10.4  (NE) 6.9 24.1 mph 48° @ 0907 AM 0.5 or 0.02 0.15 3.8 27.9 0
Wolfforth 6SSW 11:59 PM 72 58 60 /55 96 / 60 11.9  (E) 9.9 23 mph 61° @ 0701 AM 0.5 or 0.02 0.06 4.7 33.8 0

WestTexas Mesonet Home    Site Map/Menu  National Weather Service Lubbock   Soil Data   Latest Observation Page   Previous  Date   Next Last